Startpagina
METAR-TAF:

METAR-TAF

Vliegvelden :

L9-ff-1, Nederland

Productieplatform

breedte: 53-36-52N, lengte: 4-57-37E, hoogte: 30 m

Actueel weer

Dit bericht is 37 minuten geleden gemaakt, om 05:25 UTC
Wind 19 kt uit het zuidzuidwesten
Temperatuur 15°C
Vochtigheid 94%
Druk 1016 hPa
Zicht: 2800 m
Verspreide wolken lager dan 100 ft
Gebroken wolken op 200 ft
Geheel bewolkt op 300 ft
nevel

METAR: EHMG 240525Z AUTO 21019KT 2800 BR SCT000 BKN002 OVC003 15/14 Q1016

Tijdstip: 08:02 (06:02 UTC)


TAF: ontbreekt

Waarnemingen en weersverwachtingen van meer dan 4000 vliegvelden (METAR en TAF).

De beschikbare stations zijn de gele en rode punten op de kaart.

Ga met uw muis naar het station om de naam te zien.

Klik dan om waarnemingen en weersverwachtingen te zien.

kaart wijzigen: klik op de groene knoppen met een zwart kruis om in te zoomen, op de groene knop met een streepje om uit te zoomen of op de groene pijlen voor aangrenzende kaarten.


METAR-TAF: